createdAt,value
2022-08-04T00:01:40.879Z,101616.28
2022-08-04T00:04:32.554Z,101612.72
2022-08-04T00:06:59.644Z,101617.03
2022-08-04T00:09:35.735Z,101618.00
2022-08-04T00:12:07.471Z,101613.59
2022-08-04T00:14:41.497Z,101595.22
2022-08-04T00:17:09.669Z,101608.41
2022-08-04T00:19:47.372Z,101597.91
2022-08-04T00:22:22.838Z,101594.47
2022-08-04T00:24:50.162Z,101591.22
2022-08-04T00:27:17.431Z,101602.72
2022-08-04T00:29:47.385Z,101601.41
2022-08-04T00:32:33.831Z,101605.81
2022-08-04T00:35:03.115Z,101562.22
2022-08-04T00:37:32.849Z,101609.66
2022-08-04T00:40:09.517Z,101606.97
2022-08-04T00:43:02.700Z,101604.53
2022-08-04T00:46:15.872Z,101609.13
2022-08-04T00:49:16.253Z,101607.59
2022-08-04T00:52:31.715Z,101598.69
2022-08-04T00:55:22.452Z,101601.47
2022-08-04T00:58:44.791Z,101598.03
2022-08-04T01:01:44.196Z,101591.06
2022-08-04T01:04:41.147Z,101595.66
2022-08-04T01:07:08.345Z,101592.09
2022-08-04T01:10:04.003Z,101594.78
2022-08-04T01:13:07.880Z,101586.06
2022-08-04T01:16:05.230Z,101581.88
2022-08-04T01:18:50.393Z,101589.25
2022-08-04T01:21:30.502Z,101595.78
2022-08-04T01:24:53.187Z,101590.81
2022-08-04T01:27:54.969Z,101591.91
2022-08-04T01:30:27.394Z,101584.91
2022-08-04T01:33:09.333Z,101584.91
2022-08-04T01:35:50.940Z,101585.00
2022-08-04T01:38:37.422Z,101578.31
2022-08-04T01:41:14.641Z,101585.19
2022-08-04T01:43:44.832Z,101583.47
2022-08-04T01:46:16.006Z,101589.69
2022-08-04T01:48:47.787Z,101584.53
2022-08-04T01:51:15.265Z,101585.31
2022-08-04T01:53:44.695Z,101580.91
2022-08-04T01:56:13.236Z,101584.53
2022-08-04T01:58:41.645Z,101589.03
2022-08-04T02:01:13.075Z,101586.47
2022-08-04T02:04:19.398Z,101584.81
2022-08-04T02:06:58.990Z,101589.41
2022-08-04T02:09:54.261Z,101579.97
2022-08-04T02:12:41.031Z,101579.28
2022-08-04T02:15:57.601Z,101586.59
2022-08-04T02:19:15.318Z,101574.75
2022-08-04T02:21:50.414Z,101570.25
2022-08-04T02:24:24.439Z,101572.81
2022-08-04T02:26:56.638Z,101572.16
2022-08-04T02:29:54.534Z,101572.25
2022-08-04T02:32:29.842Z,101562.00
2022-08-04T02:35:12.584Z,101574.22
2022-08-04T02:37:47.001Z,101567.13
2022-08-04T02:40:22.009Z,101569.91
2022-08-04T02:42:50.978Z,101564.56
2022-08-04T02:45:20.882Z,101549.91
2022-08-04T02:48:28.683Z,101558.38
2022-08-04T02:50:44.336Z,101564.56
2022-08-04T02:53:15.509Z,101559.41
2022-08-04T02:55:50.991Z,101557.50
2022-08-04T02:58:22.439Z,101550.59
2022-08-04T03:00:52.286Z,101550.59
2022-08-04T03:03:45.017Z,101549.91
2022-08-04T03:06:15.679Z,101550.88
2022-08-04T03:09:11.662Z,101559.13
2022-08-04T03:12:00.145Z,101550.31
2022-08-04T03:15:23.321Z,101551.38
2022-08-04T03:18:24.723Z,101542.56
2022-08-04T03:21:36.473Z,101541.81
2022-08-04T03:24:43.317Z,101542.69
2022-08-04T03:27:37.581Z,101537.34
2022-08-04T03:30:17.914Z,101537.44
2022-08-04T03:32:54.110Z,101536.56
2022-08-04T03:36:01.778Z,101540.19
2022-08-04T03:39:12.282Z,101543.81
2022-08-04T03:42:18.231Z,101533.13
2022-08-04T03:45:48.438Z,101542.97
2022-08-04T03:48:55.047Z,101507.91
2022-08-04T03:51:56.139Z,101538.66
2022-08-04T03:55:18.409Z,101543.06
2022-08-04T03:58:20.120Z,101545.72
2022-08-04T04:00:55.648Z,101548.41
2022-08-04T04:03:35.567Z,101543.81
2022-08-04T04:06:35.322Z,101537.53
2022-08-04T04:09:52.350Z,101545.38
2022-08-04T04:12:56.819Z,101539.78
2022-08-04T04:15:49.905Z,101548.38
2022-08-04T04:18:47.180Z,101538.44
2022-08-04T04:21:58.041Z,101557.66
2022-08-04T04:25:16.558Z,101553.84
2022-08-04T04:27:49.724Z,101552.59
2022-08-04T04:30:32.343Z,101552.44
2022-08-04T04:33:31.028Z,101549.53
2022-08-04T04:36:19.203Z,101547.22
2022-08-04T04:39:12.592Z,101540.25
2022-08-04T04:42:07.512Z,101544.75
2022-08-04T04:45:02.333Z,101544.34
2022-08-04T04:48:08.070Z,101543.94
2022-08-04T04:51:11.792Z,101546.59
2022-08-04T04:54:00.453Z,101542.38
2022-08-04T04:56:56.340Z,101542.41
2022-08-04T04:59:32.846Z,101537.06
2022-08-04T05:02:25.023Z,101541.66
2022-08-04T05:05:01.738Z,101534.91
2022-08-04T05:08:44.188Z,101535.44
2022-08-04T05:11:42.766Z,101535.16
2022-08-04T05:14:46.311Z,101538.50
2022-08-04T05:17:46.214Z,101531.81
2022-08-04T05:20:25.810Z,101534.25
2022-08-04T05:23:02.916Z,101535.84
2022-08-04T05:25:40.991Z,101533.91
2022-08-04T05:28:24.776Z,101539.28
2022-08-04T05:31:01.769Z,101535.22
2022-08-04T05:33:49.883Z,101539.53
2022-08-04T05:36:40.181Z,101536.72
2022-08-04T05:39:17.296Z,101539.28
2022-08-04T05:41:55.084Z,101531.09
2022-08-04T05:44:27.836Z,101533.03
2022-08-04T05:46:59.101Z,101527.03
2022-08-04T05:49:29.781Z,101529.94
2022-08-04T05:52:01.998Z,101524.16
2022-08-04T05:54:33.275Z,101534.19
2022-08-04T05:57:05.157Z,101532.75
2022-08-04T05:59:36.512Z,101529.41
2022-08-04T06:02:07.140Z,101533.44
2022-08-04T06:04:43.469Z,101521.41
2022-08-04T06:07:11.368Z,101517.75
2022-08-04T06:09:38.678Z,101519.59
2022-08-04T06:12:15.532Z,101520.97
2022-08-04T06:14:47.217Z,101524.13
2022-08-04T06:19:57.379Z,101517.44
2022-08-04T06:20:19.911Z,101520.38
2022-08-04T06:22:57.575Z,101521.53
2022-08-04T06:25:32.398Z,101511.50
2022-08-04T06:28:01.890Z,101519.72
2022-08-04T06:30:32.582Z,101519.22
2022-08-04T06:33:04.987Z,101525.97
2022-08-04T06:35:33.910Z,101525.47
2022-08-04T06:38:03.276Z,101520.94
2022-08-04T06:40:34.240Z,101519.34
2022-08-04T06:43:07.696Z,101524.22
2022-08-04T06:45:39.157Z,101491.66
2022-08-04T06:48:08.857Z,101513.22
2022-08-04T06:51:27.926Z,101510.03
2022-08-04T06:53:27.059Z,101516.13
2022-08-04T06:55:57.919Z,101518.31
2022-08-04T06:58:26.713Z,101511.91
2022-08-04T07:01:01.689Z,101512.13
2022-08-04T07:03:30.940Z,101520.22
2022-08-04T07:05:58.747Z,101508.94
2022-08-04T07:08:34.870Z,101512.41
2022-08-04T07:11:02.417Z,101512.91
2022-08-04T07:13:32.710Z,101500.34
2022-08-04T07:16:01.376Z,101503.34
2022-08-04T07:18:31.847Z,101499.66
2022-08-04T07:20:59.464Z,101506.75
2022-08-04T07:23:27.601Z,101495.69
2022-08-04T07:26:11.715Z,101490.75
2022-08-04T07:28:41.876Z,101498.50
2022-08-04T07:31:34.097Z,101493.41
2022-08-04T07:34:17.192Z,101491.75
2022-08-04T07:36:53.291Z,101489.81
2022-08-04T07:39:29.720Z,101492.59
2022-08-04T07:42:01.990Z,101486.38
2022-08-04T07:44:34.738Z,101478.41
2022-08-04T07:47:05.920Z,101477.31
2022-08-04T07:49:55.933Z,101476.47
2022-08-04T07:52:26.689Z,101483.50
2022-08-04T07:54:54.873Z,101487.38
2022-08-04T07:57:41.014Z,101477.56
2022-08-04T08:00:11.870Z,101479.84
2022-08-04T08:02:39.666Z,101478.53
2022-08-04T08:05:10.623Z,101481.38
2022-08-04T08:07:38.431Z,101480.13
2022-08-04T08:10:18.740Z,101479.25
2022-08-04T08:12:51.232Z,101466.84
2022-08-04T08:15:20.273Z,101473.16
2022-08-04T08:17:59.342Z,101470.03
2022-08-04T08:20:32.294Z,101464.28
2022-08-04T08:23:02.445Z,101470.88
2022-08-04T08:25:33.796Z,101463.91
2022-08-04T08:28:04.658Z,101470.28
2022-08-04T08:30:33.985Z,101481.38
2022-08-04T08:33:09.206Z,101465.72
2022-08-04T08:35:57.054Z,101472.72
2022-08-04T08:38:48.877Z,101468.00
2022-08-04T08:41:43.757Z,101466.00
2022-08-04T08:44:41.356Z,101463.75
2022-08-04T08:47:14.274Z,101456.31
2022-08-04T08:50:15.081Z,101463.44
2022-08-04T08:53:33.468Z,101465.94
2022-08-04T08:56:31.355Z,101454.25
2022-08-04T08:59:25.339Z,101459.47
2022-08-04T09:02:07.063Z,101458.59
2022-08-04T09:05:21.731Z,101456.69
2022-08-04T09:08:04.671Z,101453.78
2022-08-04T09:10:46.562Z,101458.31
2022-08-04T09:13:43.585Z,101456.75
2022-08-04T09:16:40.673Z,101455.41
2022-08-04T09:19:37.407Z,101453.25
2022-08-04T09:22:33.781Z,101455.19
2022-08-04T09:25:18.834Z,101445.34
2022-08-04T09:28:50.898Z,101449.94
2022-08-04T09:31:17.282Z,101450.22
2022-08-04T09:34:04.618Z,101440.06
2022-08-04T09:37:14.319Z,101446.28
2022-08-04T09:40:31.412Z,101443.13
2022-08-04T09:44:43.179Z,101445.22
2022-08-04T09:46:39.238Z,101435.63
2022-08-04T09:49:53.267Z,101439.66
2022-08-04T09:52:52.381Z,101435.94
2022-08-04T09:56:03.487Z,101433.63
2022-08-04T09:58:58.585Z,101431.59
2022-08-04T10:01:30.074Z,101434.31
2022-08-04T10:04:02.699Z,101430.97
2022-08-04T10:07:04.852Z,101426.63
2022-08-04T10:09:52.594Z,101418.00
2022-08-04T10:12:25.747Z,101426.72
2022-08-04T10:15:12.277Z,101417.25
2022-08-04T10:17:54.401Z,101420.38
2022-08-04T10:20:55.502Z,101419.41
2022-08-04T10:23:56.443Z,101422.22
2022-08-04T10:26:35.098Z,101403.69
2022-08-04T10:29:14.716Z,101414.56
2022-08-04T10:32:02.440Z,101407.78
2022-08-04T10:34:43.357Z,101407.59
2022-08-04T10:38:00.034Z,101414.09
2022-08-04T10:40:45.313Z,101402.06
2022-08-04T10:43:30.905Z,101369.56
2022-08-04T10:46:26.971Z,101397.16
2022-08-04T10:49:09.299Z,101383.25
2022-08-04T10:51:58.005Z,101387.75
2022-08-04T10:55:03.857Z,101381.31
2022-08-04T10:57:48.635Z,101364.84
2022-08-04T11:00:24.175Z,101367.75
2022-08-04T11:03:02.447Z,101371.34
2022-08-04T11:05:47.273Z,101369.84
2022-08-04T11:08:35.638Z,101376.66
2022-08-04T11:11:29.623Z,101368.84
2022-08-04T11:14:06.861Z,101368.69
2022-08-04T11:17:22.769Z,101365.97
2022-08-04T11:20:38.370Z,101362.38
2022-08-04T11:23:17.675Z,101369.16
2022-08-04T11:26:20.525Z,101355.41
2022-08-04T11:29:37.408Z,101362.22
2022-08-04T11:32:17.215Z,101360.84
2022-08-04T11:34:52.875Z,101361.69
2022-08-04T11:37:36.344Z,101359.03
2022-08-04T11:40:33.286Z,101353.09
2022-08-04T11:43:10.957Z,101357.00
2022-08-04T11:45:57.087Z,101345.44
2022-08-04T11:48:36.988Z,101349.88
2022-08-04T11:51:06.815Z,101346.63
2022-08-04T11:53:38.811Z,101354.63
2022-08-04T11:56:13.499Z,101352.44
2022-08-04T11:58:50.115Z,101342.88
2022-08-04T12:02:00.224Z,101350.56
2022-08-04T12:05:01.385Z,101345.44
2022-08-04T12:08:23.852Z,101349.22
2022-08-04T12:11:12.834Z,101343.72
2022-08-04T12:13:50.815Z,101341.34
2022-08-04T12:16:30.477Z,101358.53
2022-08-04T12:19:24.099Z,101348.13
2022-08-04T12:21:59.998Z,101339.97
2022-08-04T12:24:54.420Z,101330.47
2022-08-04T12:27:49.610Z,101318.88
2022-08-04T12:31:02.045Z,101323.31
2022-08-04T12:34:02.781Z,101315.81
2022-08-04T12:37:02.804Z,101324.72
2022-08-04T12:39:31.900Z,101323.00
2022-08-04T12:42:21.517Z,101320.97
2022-08-04T12:44:54.284Z,101317.88
2022-08-04T12:47:30.103Z,101311.75
2022-08-04T12:50:03.890Z,101301.88
2022-08-04T12:55:33.388Z,101294.56
2022-08-04T12:58:04.213Z,101260.56
2022-08-04T13:00:41.207Z,101294.84
2022-08-04T13:03:16.850Z,101288.88
2022-08-04T13:05:46.762Z,101291.94
2022-08-04T13:08:19.898Z,101278.31
2022-08-04T13:10:50.627Z,101272.69
2022-08-04T13:13:21.888Z,101281.72
2022-08-04T13:16:08.943Z,101277.28
2022-08-04T13:18:47.232Z,101271.50
2022-08-04T13:21:22.807Z,101269.13
2022-08-04T13:24:20.662Z,101267.19
2022-08-04T13:27:08.944Z,101263.06
2022-08-04T13:29:57.908Z,101252.72
2022-08-04T13:32:29.927Z,101255.06
2022-08-04T13:35:00.809Z,101259.31
2022-08-04T13:37:35.997Z,101247.56
2022-08-04T13:40:09.179Z,101243.81
2022-08-04T13:42:39.008Z,101238.00
2022-08-04T13:45:08.809Z,101243.66
2022-08-04T13:47:40.127Z,101238.53
2022-08-04T13:50:27.321Z,101232.41
2022-08-04T13:52:58.106Z,101223.88
2022-08-04T13:55:35.719Z,101218.75
2022-08-04T13:58:19.806Z,101216.34
2022-08-04T14:01:00.518Z,101212.94
2022-08-04T14:03:53.574Z,101201.06
2022-08-04T14:06:28.584Z,101207.34
2022-08-04T14:08:57.581Z,101199.84
2022-08-04T14:12:09.378Z,101200.81
2022-08-04T14:14:32.608Z,101190.28
2022-08-04T14:17:20.274Z,101199.47
2022-08-04T14:19:55.940Z,101193.91
2022-08-04T14:22:28.895Z,101193.41
2022-08-04T14:25:18.447Z,101189.19
2022-08-04T14:27:52.576Z,101181.69
2022-08-04T14:30:32.847Z,101175.00
2022-08-04T14:34:03.127Z,101183.72
2022-08-04T14:36:04.246Z,101170.16
2022-08-04T14:38:58.413Z,101169.66
2022-08-04T14:41:43.705Z,101169.66
2022-08-04T14:44:10.695Z,101159.47
2022-08-04T14:46:52.536Z,101139.59
2022-08-04T14:49:20.959Z,101166.59
2022-08-04T14:52:01.704Z,101165.41
2022-08-04T14:54:35.381Z,101150.59
2022-08-04T14:57:07.057Z,101141.72
2022-08-04T15:00:00.721Z,101158.34
2022-08-04T15:02:30.558Z,101141.63
2022-08-04T15:04:59.734Z,101144.50
2022-08-04T15:07:47.027Z,101148.06
2022-08-04T15:10:14.615Z,101138.19
2022-08-04T15:12:41.952Z,101136.38
2022-08-04T15:15:34.082Z,101125.88
2022-08-04T15:17:56.657Z,101131.84
2022-08-04T15:20:23.867Z,101131.00
2022-08-04T15:22:51.004Z,101113.50
2022-08-04T15:25:19.003Z,101101.22
2022-08-04T15:27:51.259Z,101108.34
2022-08-04T15:30:19.236Z,101096.47
2022-08-04T15:32:54.564Z,101110.06
2022-08-04T15:35:35.112Z,101093.22
2022-08-04T15:38:36.744Z,101101.91
2022-08-04T15:41:10.283Z,101106.34
2022-08-04T15:43:47.220Z,101094.75
2022-08-04T15:46:44.315Z,101089.66
2022-08-04T15:49:24.416Z,101089.66
2022-08-04T15:52:18.161Z,101087.63
2022-08-04T15:54:52.384Z,101086.41
2022-08-04T15:58:04.837Z,101076.38
2022-08-04T16:00:50.170Z,101074.66
2022-08-04T16:03:59.132Z,101065.34
2022-08-04T16:06:22.548Z,101068.59
2022-08-04T16:08:51.998Z,101075.44
2022-08-04T16:11:31.160Z,101066.47
2022-08-04T16:13:59.029Z,101069.06
2022-08-04T16:16:50.107Z,101065.53
2022-08-04T16:19:35.426Z,101077.47
2022-08-04T16:22:04.733Z,101059.63
2022-08-04T16:24:42.624Z,101051.13
2022-08-04T16:27:12.907Z,101051.84
2022-08-04T16:29:44.104Z,101056.31
2022-08-04T16:32:17.654Z,101063.28
2022-08-04T16:35:04.912Z,101058.56
2022-08-04T16:37:38.258Z,101053.28
2022-08-04T16:40:38.066Z,101059.06
2022-08-04T16:43:09.520Z,101017.34
2022-08-04T16:46:00.550Z,101055.03
2022-08-04T16:48:35.909Z,101062.84
2022-08-04T16:51:14.488Z,101066.09
2022-08-04T16:53:53.859Z,101099.91
2022-08-04T16:56:34.781Z,101123.03
2022-08-04T16:59:11.653Z,101128.22
2022-08-04T17:01:48.516Z,101121.50
2022-08-04T17:04:16.919Z,101112.03
2022-08-04T17:06:46.620Z,101104.66
2022-08-04T17:09:19.601Z,101097.47
2022-08-04T17:11:48.191Z,101097.94
2022-08-04T17:14:26.594Z,101110.88
2022-08-04T17:16:57.423Z,101147.72
2022-08-04T17:19:26.425Z,101164.44
2022-08-04T17:22:05.965Z,101159.34
2022-08-04T17:24:40.704Z,101172.50
2022-08-04T17:28:09.085Z,101165.84
2022-08-04T17:29:55.755Z,101171.81
2022-08-04T17:32:23.983Z,101142.81
2022-08-04T17:34:59.281Z,101156.50
2022-08-04T17:37:39.370Z,101178.88
2022-08-04T17:40:18.059Z,101239.38
2022-08-04T17:43:01.839Z,101307.66
2022-08-04T17:48:24.914Z,101391.28
2022-08-04T17:51:17.733Z,101400.19
2022-08-04T17:56:52.353Z,101367.28
2022-08-04T17:59:52.386Z,101379.19
2022-08-04T18:02:13.313Z,101370.75
2022-08-04T18:05:07.011Z,101365.91
2022-08-04T18:08:39.005Z,101348.13
2022-08-04T18:10:57.223Z,101356.22
2022-08-04T18:13:28.339Z,101362.56
2022-08-04T18:16:14.457Z,101387.28
2022-08-04T18:19:13.527Z,101405.94
2022-08-04T18:21:45.511Z,101394.94
2022-08-04T18:24:56.264Z,101396.88
2022-08-04T18:27:29.828Z,101423.44
2022-08-04T18:30:33.454Z,101409.47
2022-08-04T18:33:24.532Z,101402.97
2022-08-04T18:36:34.922Z,101406.91
2022-08-04T18:38:24.245Z,101393.78
2022-08-04T18:40:54.779Z,101381.19
2022-08-04T18:43:28.136Z,101385.13
2022-08-04T18:45:59.464Z,101388.91
2022-08-04T18:48:36.144Z,101396.22
2022-08-04T18:51:23.088Z,101382.28
2022-08-04T18:53:58.421Z,101373.94
2022-08-04T18:56:31.825Z,101364.47
2022-08-04T18:59:10.295Z,101383.88
2022-08-04T19:02:12.193Z,101378.91
2022-08-04T19:04:33.362Z,101386.81
2022-08-04T19:07:24.561Z,101394.25
2022-08-04T19:09:57.606Z,101392.41
2022-08-04T19:12:28.500Z,101381.28
2022-08-04T19:15:08.848Z,101382.16
2022-08-04T19:17:55.201Z,101385.03
2022-08-04T19:20:26.978Z,101377.19
2022-08-04T19:24:28.361Z,101397.25
2022-08-04T19:26:03.750Z,101389.75
2022-08-04T19:31:28.185Z,101379.09
2022-08-04T19:34:04.717Z,101401.38
2022-08-04T19:36:33.125Z,101398.47
2022-08-04T19:39:09.166Z,101405.06
2022-08-04T19:44:29.469Z,101397.25
2022-08-04T19:47:00.725Z,101396.75
2022-08-04T19:50:04.722Z,101392.34
2022-08-04T19:52:34.090Z,101379.25
2022-08-04T19:55:09.694Z,101375.00
2022-08-04T19:57:44.177Z,101375.47
2022-08-04T20:00:16.203Z,101372.56
2022-08-04T20:02:44.728Z,101373.53
2022-08-04T20:05:13.233Z,101394.38
2022-08-04T20:07:40.350Z,101414.19
2022-08-04T20:10:08.800Z,101423.50
2022-08-04T20:12:42.029Z,101439.28
2022-08-04T20:15:12.483Z,101421.31
2022-08-04T20:18:14.338Z,101393.41
2022-08-04T20:20:29.873Z,101364.16
2022-08-04T20:22:57.692Z,101368.56
2022-08-04T20:25:37.005Z,101378.84
2022-08-04T20:28:05.678Z,101373.09
2022-08-04T20:30:35.950Z,101375.34
2022-08-04T20:33:04.197Z,101366.69
2022-08-04T20:36:00.836Z,101368.88
2022-08-04T20:38:33.755Z,101359.31
2022-08-04T20:41:02.170Z,101353.66
2022-08-04T20:43:31.139Z,101375.97
2022-08-04T20:45:59.304Z,101352.69
2022-08-04T20:48:33.755Z,101375.09
2022-08-04T20:51:01.022Z,101368.13
2022-08-04T20:56:19.327Z,101357.13
2022-08-04T20:58:57.438Z,101355.41
2022-08-04T21:01:29.694Z,101354.78
2022-08-04T21:04:27.097Z,101356.03
2022-08-04T21:07:00.160Z,101338.75
2022-08-04T21:09:38.352Z,101352.56
2022-08-04T21:12:27.340Z,101333.47
2022-08-04T21:15:01.451Z,101343.84
2022-08-04T21:17:58.931Z,101340.38
2022-08-04T21:20:28.599Z,101337.38
2022-08-04T21:23:01.520Z,101343.38
2022-08-04T21:25:29.872Z,101359.84
2022-08-04T21:27:58.905Z,101340.88
2022-08-04T21:30:32.873Z,101346.25
2022-08-04T21:33:19.161Z,101346.63
2022-08-04T21:35:47.197Z,101330.22
2022-08-04T21:38:17.530Z,101357.03
2022-08-04T21:40:56.342Z,101356.63
2022-08-04T21:43:27.037Z,101356.59
2022-08-04T21:46:03.842Z,101353.75
2022-08-04T21:48:32.341Z,101353.22
2022-08-04T21:52:00.775Z,101330.19
2022-08-04T21:54:15.117Z,101369.97
2022-08-04T21:56:50.855Z,101349.25
2022-08-04T21:59:23.917Z,101384.16
2022-08-04T22:01:57.901Z,101384.19
2022-08-04T22:04:28.375Z,101383.00
2022-08-04T22:06:55.449Z,101365.00
2022-08-04T22:09:22.679Z,101381.81
2022-08-04T22:11:51.766Z,101383.63
2022-08-04T22:14:27.549Z,101377.41
2022-08-04T22:16:57.698Z,101346.06
2022-08-04T22:19:40.792Z,101372.91
2022-08-04T22:22:13.672Z,101374.94
2022-08-04T22:24:54.840Z,101352.19
2022-08-04T22:27:40.182Z,101381.69
2022-08-04T22:30:17.250Z,101360.38
2022-08-04T22:32:50.719Z,101386.34
2022-08-04T22:35:35.666Z,101372.25
2022-08-04T22:38:24.478Z,101375.41
2022-08-04T22:40:59.702Z,101387.41
2022-08-04T22:43:33.395Z,101387.50
2022-08-04T22:46:06.449Z,101367.56
2022-08-04T22:48:36.753Z,101379.56
2022-08-04T22:51:05.963Z,101374.19
2022-08-04T22:53:35.669Z,101375.16
2022-08-04T22:56:09.587Z,101385.78
2022-08-04T22:58:45.588Z,101368.53
2022-08-04T23:01:19.073Z,101358.16
2022-08-04T23:03:55.051Z,101367.56
2022-08-04T23:06:25.597Z,101365.84
2022-08-04T23:08:57.380Z,101399.13
2022-08-04T23:11:24.752Z,101381.47
2022-08-04T23:14:02.901Z,101380.47
2022-08-04T23:16:30.162Z,101385.84
2022-08-04T23:18:57.204Z,101384.88
2022-08-04T23:21:24.821Z,101401.13
2022-08-04T23:24:00.747Z,101372.03
2022-08-04T23:26:31.243Z,101404.91
2022-08-04T23:28:58.552Z,101395.53
2022-08-04T23:31:36.631Z,101372.41
2022-08-04T23:34:09.426Z,101381.94
2022-08-04T23:36:40.840Z,101399.66
2022-08-04T23:39:09.862Z,101385.94
2022-08-04T23:41:55.430Z,101377.38
2022-08-04T23:44:26.897Z,101381.88
2022-08-04T23:47:03.266Z,101395.16
2022-08-04T23:49:43.995Z,101396.56
2022-08-04T23:52:28.332Z,101400.09
2022-08-04T23:55:01.158Z,101416.41
2022-08-04T23:57:31.204Z,101389.06
